createdAt,value
2023-02-02T00:01:20.818Z,63.90
2023-02-02T00:03:50.969Z,63.26
2023-02-02T00:06:23.252Z,62.27
2023-02-02T00:08:51.237Z,60.90
2023-02-02T00:11:19.512Z,59.60
2023-02-02T00:13:47.235Z,60.06
2023-02-02T00:16:31.071Z,63.18
2023-02-02T00:19:01.215Z,64.05
2023-02-02T00:21:28.952Z,60.82
2023-02-02T00:23:56.668Z,57.76
2023-02-02T00:26:24.758Z,57.75
2023-02-02T00:28:52.717Z,59.30
2023-02-02T00:31:20.560Z,63.76
2023-02-02T00:33:49.973Z,63.49
2023-02-02T00:36:19.290Z,59.88
2023-02-02T00:38:48.272Z,57.76
2023-02-02T00:41:16.424Z,60.33
2023-02-02T00:43:44.501Z,61.47
2023-02-02T00:46:18.762Z,64.42
2023-02-02T00:48:47.072Z,63.81
2023-02-02T00:51:14.745Z,59.46
2023-02-02T00:53:42.414Z,58.90
2023-02-02T00:56:10.205Z,60.72
2023-02-02T00:58:37.936Z,63.76
2023-02-02T01:01:05.709Z,63.67
2023-02-02T01:03:33.542Z,60.30
2023-02-02T01:06:01.263Z,58.22
2023-02-02T01:08:29.261Z,59.99
2023-02-02T01:10:59.725Z,61.87
2023-02-02T01:13:27.466Z,64.26
2023-02-02T01:15:57.334Z,62.04
2023-02-02T01:18:27.806Z,57.86
2023-02-02T01:21:02.434Z,58.07
2023-02-02T01:23:30.808Z,61.36
2023-02-02T01:26:00.567Z,63.42
2023-02-02T01:28:28.868Z,61.70
2023-02-02T01:30:57.515Z,58.15
2023-02-02T01:33:25.534Z,57.64
2023-02-02T01:35:55.439Z,60.94
2023-02-02T01:38:24.795Z,63.02
2023-02-02T01:40:55.427Z,63.00
2023-02-02T01:43:52.694Z,59.50
2023-02-02T01:46:34.839Z,58.27
2023-02-02T01:49:13.272Z,61.03
2023-02-02T01:51:46.504Z,63.70
2023-02-02T01:54:19.015Z,61.89
2023-02-02T01:56:59.371Z,58.29
2023-02-02T01:59:28.504Z,57.54
2023-02-02T02:01:56.439Z,60.84
2023-02-02T02:04:25.266Z,63.83
2023-02-02T02:06:53.725Z,63.29
2023-02-02T02:09:21.721Z,59.11
2023-02-02T02:11:49.459Z,57.14
2023-02-02T02:14:36.015Z,58.58
2023-02-02T02:17:37.930Z,62.07
2023-02-02T02:20:53.264Z,63.81
2023-02-02T02:24:02.819Z,59.01
2023-02-02T02:26:39.776Z,58.34
2023-02-02T02:29:36.009Z,61.50
2023-02-02T02:32:23.315Z,62.84
2023-02-02T02:35:21.866Z,62.11
2023-02-02T02:38:12.558Z,58.19
2023-02-02T02:40:46.653Z,57.48
2023-02-02T02:43:33.414Z,58.86
2023-02-02T02:46:02.266Z,61.75
2023-02-02T02:48:30.006Z,63.98
2023-02-02T02:51:38.525Z,61.72
2023-02-02T02:54:06.947Z,58.43
2023-02-02T02:56:46.979Z,58.62
2023-02-02T02:59:36.188Z,61.27
2023-02-02T03:02:29.104Z,63.70
2023-02-02T03:05:28.150Z,60.94
2023-02-02T03:08:24.821Z,57.59
2023-02-02T03:10:52.844Z,59.66
2023-02-02T03:13:20.522Z,60.94
2023-02-02T03:15:48.263Z,62.82
2023-02-02T03:18:17.812Z,63.24
2023-02-02T03:20:46.476Z,58.76
2023-02-02T03:23:14.481Z,57.69
2023-02-02T03:25:42.257Z,57.78
2023-02-02T03:28:10.059Z,60.92
2023-02-02T03:35:35.191Z,58.24
2023-02-02T03:38:03.810Z,59.67
2023-02-02T03:40:31.461Z,61.66
2023-02-02T03:42:59.115Z,62.66
2023-02-02T03:45:28.483Z,61.39
2023-02-02T03:47:56.191Z,57.45
2023-02-02T03:50:25.877Z,58.44
2023-02-02T03:52:54.025Z,60.60
2023-02-02T03:55:22.083Z,62.21
2023-02-02T03:57:50.019Z,62.50
2023-02-02T04:00:18.248Z,59.98
2023-02-02T04:02:45.969Z,57.41
2023-02-02T04:05:13.694Z,58.00
2023-02-02T04:07:41.464Z,60.31
2023-02-02T04:10:10.063Z,62.23
2023-02-02T04:12:37.785Z,63.07
2023-02-02T04:15:06.422Z,60.02
2023-02-02T04:17:35.332Z,57.67
2023-02-02T04:20:04.686Z,58.36
2023-02-02T04:22:33.475Z,60.69
2023-02-02T04:25:01.270Z,61.92
2023-02-02T04:27:32.627Z,62.83
2023-02-02T04:30:00.298Z,60.32
2023-02-02T04:32:29.252Z,57.61
2023-02-02T04:34:56.945Z,58.40
2023-02-02T04:37:24.622Z,60.11
2023-02-02T04:39:53.825Z,61.59
2023-02-02T04:42:21.607Z,63.11
2023-02-02T04:44:49.661Z,62.59
2023-02-02T04:47:17.572Z,57.84
2023-02-02T04:49:45.249Z,57.97
2023-02-02T04:52:13.068Z,59.96
2023-02-02T04:54:40.748Z,61.82
2023-02-02T04:57:08.686Z,63.31
2023-02-02T04:59:36.442Z,61.01
2023-02-02T05:02:04.547Z,56.55
2023-02-02T05:04:32.409Z,56.67
2023-02-02T05:07:00.323Z,59.17
2023-02-02T05:09:28.177Z,61.00
2023-02-02T05:11:55.889Z,62.78
2023-02-02T05:14:23.612Z,60.78
2023-02-02T05:16:51.404Z,58.17
2023-02-02T05:19:19.273Z,58.92
2023-02-02T05:21:51.014Z,60.66
2023-02-02T05:24:19.332Z,62.69
2023-02-02T05:26:47.316Z,62.31
2023-02-02T05:29:15.143Z,59.28
2023-02-02T05:31:42.844Z,57.57
2023-02-02T05:34:11.612Z,59.44
2023-02-02T05:36:39.355Z,61.18
2023-02-02T05:39:07.179Z,63.19
2023-02-02T05:41:34.906Z,61.95
2023-02-02T05:44:03.332Z,59.93
2023-02-02T05:46:31.132Z,56.80
2023-02-02T05:48:59.356Z,57.51
2023-02-02T05:51:32.444Z,60.17
2023-02-02T05:54:01.117Z,61.85
2023-02-02T05:56:28.887Z,64.48
2023-02-02T05:58:56.611Z,60.85
2023-02-02T06:01:24.489Z,58.18
2023-02-02T06:03:52.246Z,58.78
2023-02-02T06:06:20.237Z,61.28
2023-02-02T06:08:48.063Z,63.55
2023-02-02T06:11:17.747Z,62.42
2023-02-02T06:13:46.102Z,59.55
2023-02-02T06:16:14.156Z,58.68
2023-02-02T06:18:41.939Z,60.82
2023-02-02T06:21:10.221Z,62.95
2023-02-02T06:23:38.301Z,63.67
2023-02-02T06:26:08.274Z,60.73
2023-02-02T06:28:36.134Z,59.92
2023-02-02T06:31:05.958Z,58.86
2023-02-02T06:33:33.817Z,60.10
2023-02-02T06:36:06.311Z,63.31
2023-02-02T06:38:34.096Z,63.80
2023-02-02T06:41:02.760Z,61.17
2023-02-02T06:43:31.045Z,59.47
2023-02-02T06:45:58.846Z,58.65
2023-02-02T06:48:27.298Z,62.09
2023-02-02T06:50:59.256Z,63.59
2023-02-02T06:53:27.331Z,62.06
2023-02-02T06:55:56.187Z,59.49
2023-02-02T06:58:23.990Z,59.06
2023-02-02T07:00:52.091Z,61.52
2023-02-02T07:03:21.467Z,63.59
2023-02-02T07:05:49.657Z,62.17
2023-02-02T07:08:17.600Z,59.27
2023-02-02T07:11:14.513Z,58.51
2023-02-02T07:13:33.035Z,61.51
2023-02-02T07:16:00.853Z,63.37
2023-02-02T07:18:28.618Z,61.62
2023-02-02T07:21:00.445Z,59.32
2023-02-02T07:23:29.107Z,58.36
2023-02-02T07:26:01.773Z,59.29
2023-02-02T07:28:29.555Z,60.92
2023-02-02T07:30:59.179Z,64.04
2023-02-02T07:33:27.266Z,63.93
2023-02-02T07:35:55.069Z,58.99
2023-02-02T07:38:22.756Z,57.25
2023-02-02T07:40:50.447Z,58.68
2023-02-02T07:43:19.404Z,61.45
2023-02-02T07:45:47.058Z,63.93
2023-02-02T07:48:14.776Z,62.24
2023-02-02T07:50:42.481Z,57.73
2023-02-02T07:53:10.241Z,57.33
2023-02-02T07:55:38.009Z,58.76
2023-02-02T07:58:07.754Z,60.83
2023-02-02T08:00:35.446Z,63.34
2023-02-02T08:03:03.303Z,63.53
2023-02-02T08:05:32.095Z,59.71
2023-02-02T08:07:59.741Z,55.87
2023-02-02T08:10:28.032Z,56.62
2023-02-02T08:12:55.683Z,58.84
2023-02-02T08:15:23.484Z,60.38
2023-02-02T08:17:52.045Z,62.45
2023-02-02T08:20:19.755Z,64.07
2023-02-02T08:22:47.486Z,60.34
2023-02-02T08:25:15.310Z,56.74
2023-02-02T08:27:42.960Z,56.58
2023-02-02T08:30:11.582Z,59.28
2023-02-02T08:32:40.479Z,60.01
2023-02-02T08:35:08.369Z,61.33
2023-02-02T08:37:36.110Z,61.89
2023-02-02T08:40:04.176Z,65.09
2023-02-02T08:42:31.849Z,61.86
2023-02-02T08:46:00.025Z,57.21
2023-02-02T08:47:47.305Z,56.22
2023-02-02T08:50:16.301Z,57.30
2023-02-02T08:52:44.535Z,59.57
2023-02-02T08:55:12.190Z,59.98
2023-02-02T08:57:39.961Z,59.88
2023-02-02T14:02:41.149Z,71.35
2023-02-02T14:05:22.431Z,72.45
2023-02-02T14:07:55.882Z,69.97
2023-02-02T14:10:27.056Z,65.68
2023-02-02T14:12:55.869Z,60.54
2023-02-02T14:15:43.930Z,56.35
2023-02-02T14:18:11.698Z,55.17
2023-02-02T14:20:48.154Z,52.47
2023-02-02T14:23:53.604Z,51.96
2023-02-02T14:26:43.594Z,54.71
2023-02-02T14:29:31.319Z,52.57
2023-02-02T14:32:24.217Z,53.78
2023-02-02T14:34:56.332Z,54.48
2023-02-02T14:37:23.995Z,55.03
2023-02-02T14:40:06.993Z,55.66
2023-02-02T14:43:12.951Z,56.79
2023-02-02T14:45:42.460Z,57.96
2023-02-02T14:48:16.148Z,57.84
2023-02-02T14:50:56.574Z,59.79
2023-02-02T14:53:36.529Z,59.96
2023-02-02T14:56:04.343Z,60.44
2023-02-02T14:58:35.123Z,61.02
2023-02-02T15:01:13.476Z,61.42
2023-02-02T15:03:47.254Z,61.30
2023-02-02T15:06:33.912Z,61.97
2023-02-02T15:09:19.991Z,62.68
2023-02-02T15:12:02.975Z,64.67
2023-02-02T15:14:36.215Z,57.70
2023-02-02T15:17:22.554Z,55.57
2023-02-02T15:19:56.238Z,55.38
2023-02-02T15:22:37.724Z,56.37
2023-02-02T15:25:14.105Z,56.32
2023-02-02T15:27:56.186Z,57.11
2023-02-02T15:30:27.509Z,57.57
2023-02-02T15:32:55.966Z,57.64
2023-02-02T15:35:28.493Z,57.95
2023-02-02T15:38:01.623Z,58.18
2023-02-02T15:40:30.593Z,58.35
2023-02-02T15:43:06.294Z,58.89
2023-02-02T15:45:43.690Z,58.89
2023-02-02T15:48:18.746Z,58.23
2023-02-02T15:50:48.217Z,58.77
2023-02-02T15:53:22.273Z,58.76
2023-02-02T15:55:50.268Z,59.24
2023-02-02T15:58:33.082Z,59.12
2023-02-02T16:01:06.812Z,59.27
2023-02-02T16:03:46.945Z,59.63
2023-02-02T16:06:14.712Z,59.56
2023-02-02T16:08:42.557Z,60.01
2023-02-02T16:11:18.686Z,60.23
2023-02-02T16:14:07.375Z,60.40
2023-02-02T16:16:37.735Z,61.02
2023-02-02T16:19:08.925Z,61.14
2023-02-02T16:21:41.221Z,61.48
2023-02-02T16:24:12.050Z,61.69
2023-02-02T16:26:39.887Z,61.39
2023-02-02T16:29:17.123Z,61.20
2023-02-02T16:31:46.958Z,61.17
2023-02-02T16:34:44.957Z,61.15
2023-02-02T16:37:14.149Z,60.81
2023-02-02T16:39:42.152Z,60.62
2023-02-02T16:42:35.076Z,60.81
2023-02-02T16:45:02.819Z,61.20
2023-02-02T16:47:33.107Z,61.42
2023-02-02T16:50:09.782Z,61.28
2023-02-02T16:52:57.897Z,61.28
2023-02-02T16:55:36.424Z,60.78
2023-02-02T16:58:21.302Z,60.64
2023-02-02T17:01:13.670Z,60.44
2023-02-02T17:03:50.114Z,60.59
2023-02-02T17:06:19.142Z,60.46
2023-02-02T17:08:47.792Z,60.19
2023-02-02T17:11:26.577Z,59.56
2023-02-02T17:13:54.829Z,59.59
2023-02-02T17:16:24.236Z,59.32
2023-02-02T17:18:52.047Z,59.18
2023-02-02T17:21:21.950Z,59.15
2023-02-02T17:23:51.759Z,59.28
2023-02-02T17:26:19.839Z,59.31
2023-02-02T17:28:47.788Z,59.13
2023-02-02T17:31:16.540Z,59.52
2023-02-02T17:33:47.156Z,58.89
2023-02-02T17:36:15.105Z,58.93
2023-02-02T17:38:43.163Z,59.32
2023-02-02T17:41:12.533Z,59.37
2023-02-02T17:43:42.694Z,58.48
2023-02-02T17:46:13.277Z,58.02
2023-02-02T17:48:41.095Z,57.66
2023-02-02T17:51:17.977Z,57.67
2023-02-02T17:53:46.394Z,57.50
2023-02-02T17:56:14.149Z,57.67
2023-02-02T17:58:42.173Z,57.43
2023-02-02T18:01:11.940Z,57.75
2023-02-02T18:03:41.065Z,57.58
2023-02-02T18:06:10.097Z,57.84
2023-02-02T18:08:37.876Z,57.52
2023-02-02T18:11:05.874Z,56.44
2023-02-02T18:13:36.290Z,56.76
2023-02-02T18:16:06.030Z,56.83
2023-02-02T18:18:33.963Z,57.02
2023-02-02T18:21:02.471Z,57.21
2023-02-02T18:23:30.229Z,57.30
2023-02-02T18:26:09.618Z,57.18
2023-02-02T18:28:38.520Z,56.97
2023-02-02T18:31:14.021Z,57.05
2023-02-02T18:33:42.550Z,57.18
2023-02-02T18:36:16.069Z,56.39
2023-02-02T18:38:47.175Z,56.75
2023-02-02T18:41:16.036Z,56.87
2023-02-02T18:43:45.509Z,57.68
2023-02-02T18:46:15.122Z,57.57
2023-02-02T18:48:43.200Z,57.35
2023-02-02T18:51:16.142Z,57.64
2023-02-02T18:53:45.178Z,56.94
2023-02-02T18:56:14.763Z,57.58
2023-02-02T18:58:42.522Z,57.45
2023-02-02T19:01:16.236Z,57.54
2023-02-02T19:03:48.409Z,57.44
2023-02-02T19:06:35.679Z,57.62
2023-02-02T19:09:04.312Z,57.18
2023-02-02T19:11:38.886Z,57.72
2023-02-02T19:14:13.067Z,57.55
2023-02-02T19:16:41.147Z,57.61
2023-02-02T19:19:20.397Z,57.98
2023-02-02T19:21:48.262Z,58.17
2023-02-02T19:24:15.957Z,58.25
2023-02-02T19:26:48.672Z,58.12
2023-02-02T19:29:23.347Z,58.34
2023-02-02T19:32:02.935Z,58.75
2023-02-02T19:34:33.031Z,58.62
2023-02-02T19:37:22.813Z,58.86
2023-02-02T19:40:13.500Z,59.03
2023-02-02T19:42:50.199Z,59.14
2023-02-02T19:45:30.086Z,59.37
2023-02-02T19:47:59.784Z,60.20
2023-02-02T19:50:32.743Z,59.93
2023-02-02T19:53:02.321Z,59.97
2023-02-02T19:55:35.286Z,60.19
2023-02-02T19:58:21.465Z,59.93
2023-02-02T20:00:50.647Z,60.10
2023-02-02T20:03:36.300Z,59.89
2023-02-02T20:06:04.663Z,60.01
2023-02-02T20:08:39.903Z,59.98
2023-02-02T20:11:23.633Z,59.89
2023-02-02T20:13:51.952Z,59.93
2023-02-02T20:16:22.013Z,60.22
2023-02-02T20:18:54.559Z,60.20
2023-02-02T20:21:36.927Z,60.31
2023-02-02T20:24:14.940Z,60.44
2023-02-02T20:26:42.914Z,60.77
2023-02-02T20:29:16.547Z,60.84
2023-02-02T20:31:45.705Z,60.90
2023-02-02T20:34:24.263Z,61.03
2023-02-02T20:36:55.041Z,61.07
2023-02-02T20:39:28.088Z,61.32
2023-02-02T20:41:57.240Z,61.38
2023-02-02T20:44:26.892Z,61.35
2023-02-02T20:46:55.987Z,61.35
2023-02-02T20:49:25.654Z,61.46
2023-02-02T20:51:58.082Z,61.49
2023-02-02T20:54:26.376Z,61.53
2023-02-02T20:56:54.471Z,61.65
2023-02-02T20:59:22.379Z,61.81
2023-02-02T21:01:50.535Z,62.47
2023-02-02T21:04:19.402Z,68.13
2023-02-02T21:06:48.796Z,65.90
2023-02-02T21:09:16.922Z,58.85
2023-02-02T21:11:44.617Z,54.40
2023-02-02T21:14:12.406Z,53.95
2023-02-02T21:16:40.127Z,54.27
2023-02-02T21:19:07.944Z,54.86
2023-02-02T21:21:36.040Z,55.72
2023-02-02T21:24:04.312Z,56.74
2023-02-02T21:26:31.992Z,57.95
2023-02-02T21:28:59.702Z,58.53
2023-02-02T21:31:27.562Z,58.96
2023-02-02T21:33:55.512Z,59.26
2023-02-02T21:36:29.764Z,59.73
2023-02-02T21:39:12.304Z,60.14
2023-02-02T21:41:40.023Z,60.51
2023-02-02T21:44:22.344Z,60.85
2023-02-02T21:46:51.631Z,60.97
2023-02-02T21:49:24.817Z,61.36
2023-02-02T21:51:56.072Z,61.65
2023-02-02T21:54:24.870Z,61.81
2023-02-02T21:56:53.116Z,62.08
2023-02-02T21:59:23.241Z,65.49
2023-02-02T22:01:52.440Z,68.69
2023-02-02T22:04:31.345Z,61.84
2023-02-02T22:07:00.555Z,52.97
2023-02-02T22:09:37.516Z,51.66
2023-02-02T22:12:22.561Z,52.18
2023-02-02T22:14:52.543Z,52.80
2023-02-02T22:17:27.764Z,53.92
2023-02-02T22:20:00.906Z,54.56
2023-02-02T22:22:35.940Z,55.29
2023-02-02T22:25:17.778Z,55.82
2023-02-02T22:27:52.576Z,56.25
2023-02-02T22:30:26.090Z,56.81
2023-02-02T22:32:54.893Z,57.30
2023-02-02T22:35:22.728Z,57.61
2023-02-02T22:37:51.417Z,58.05
2023-02-02T22:40:22.441Z,58.40
2023-02-02T22:42:54.803Z,58.70
2023-02-02T22:45:22.500Z,58.94
2023-02-02T22:47:50.581Z,58.54
2023-02-02T22:50:20.641Z,59.19
2023-02-02T22:52:48.498Z,59.71
2023-02-02T22:55:17.314Z,60.07
2023-02-02T22:57:45.237Z,60.41
2023-02-02T23:00:18.312Z,60.57
2023-02-02T23:02:46.268Z,60.92
2023-02-02T23:05:15.428Z,61.11
2023-02-02T23:07:46.598Z,61.11
2023-02-02T23:10:17.101Z,61.24
2023-02-02T23:12:45.503Z,61.38
2023-02-02T23:15:13.816Z,61.72
2023-02-02T23:17:41.642Z,61.84
2023-02-02T23:20:12.463Z,62.03
2023-02-02T23:22:40.156Z,61.93
2023-02-02T23:25:08.562Z,62.10
2023-02-02T23:27:36.507Z,62.26
2023-02-02T23:30:05.870Z,64.91
2023-02-02T23:32:34.305Z,67.81
2023-02-02T23:35:02.137Z,62.94
2023-02-02T23:37:29.808Z,54.66
2023-02-02T23:39:57.526Z,51.78
2023-02-02T23:42:25.800Z,52.33
2023-02-02T23:44:53.511Z,53.08
2023-02-02T23:47:21.295Z,53.80
2023-02-02T23:49:48.999Z,54.77
2023-02-02T23:52:17.113Z,55.81
2023-02-02T23:54:44.841Z,56.18
2023-02-02T23:57:12.532Z,56.56
2023-02-02T23:59:40.343Z,56.92
